createdAt,value
2022-09-28T00:00:09.671Z,95844.28
2022-09-28T00:01:14.038Z,95840.03
2022-09-28T00:02:15.857Z,95836.94
2022-09-28T00:03:17.461Z,95842.75
2022-09-28T00:04:20.452Z,95833.50
2022-09-28T00:05:22.403Z,95835.00
2022-09-28T00:06:26.775Z,95834.63
2022-09-28T00:07:28.937Z,95836.16
2022-09-28T00:08:30.544Z,95839.28
2022-09-28T00:09:32.141Z,95838.56
2022-09-28T00:10:33.681Z,95836.69
2022-09-28T00:11:36.052Z,95830.94
2022-09-28T00:12:37.639Z,95823.25
2022-09-28T00:13:40.343Z,95826.75
2022-09-28T00:14:44.129Z,95821.34
2022-09-28T00:15:45.670Z,95820.94
2022-09-28T00:16:48.603Z,95822.88
2022-09-28T00:17:50.384Z,95828.31
2022-09-28T00:18:52.338Z,95830.63
2022-09-28T00:19:54.125Z,95827.50
2022-09-28T00:21:11.295Z,95833.66
2022-09-28T00:22:12.852Z,95835.19
2022-09-28T00:23:14.363Z,95836.75
2022-09-28T00:24:16.053Z,95839.03
2022-09-28T00:25:17.769Z,95836.28
2022-09-28T00:26:19.284Z,95835.09
2022-09-28T00:27:20.849Z,95833.53
2022-09-28T00:28:22.427Z,95836.19
2022-09-28T00:29:27.007Z,95828.06
2022-09-28T00:30:28.532Z,95825.72
2022-09-28T00:31:32.784Z,95824.91
2022-09-28T00:32:34.688Z,95831.84
2022-09-28T00:33:36.229Z,95823.72
2022-09-28T00:34:42.466Z,95833.03
2022-09-28T00:35:44.107Z,95826.50
2022-09-28T00:36:48.151Z,95828.88
2022-09-28T00:37:50.334Z,95826.59
2022-09-28T00:38:52.315Z,95826.25
2022-09-28T00:39:53.824Z,95829.75
2022-09-28T00:40:56.136Z,95829.75
2022-09-28T00:41:58.817Z,95830.53
2022-09-28T00:43:20.333Z,95830.56
2022-09-28T00:44:52.928Z,95826.72
2022-09-28T00:46:03.696Z,95825.16
2022-09-28T00:47:38.675Z,95820.50
2022-09-28T00:48:51.949Z,95819.75
2022-09-28T00:50:02.312Z,95818.56
2022-09-28T00:51:09.236Z,95813.56
2022-09-28T00:52:15.753Z,95816.66
2022-09-28T00:53:26.773Z,95818.19
2022-09-28T00:54:31.095Z,95818.16
2022-09-28T00:55:40.170Z,95805.41
2022-09-28T00:56:44.683Z,95815.06
2022-09-28T00:57:51.877Z,95804.22
2022-09-28T00:58:54.740Z,95805.75
2022-09-28T00:59:56.851Z,95800.72
2022-09-28T01:00:59.716Z,95805.72
2022-09-28T01:02:02.346Z,95809.22
2022-09-28T01:03:04.147Z,95808.06
2022-09-28T01:04:06.492Z,95807.66
2022-09-28T01:05:10.410Z,95804.13
2022-09-28T01:06:18.036Z,95802.22
2022-09-28T01:07:20.220Z,95809.53
2022-09-28T01:08:24.633Z,95801.03
2022-09-28T01:09:27.708Z,95806.03
2022-09-28T01:10:31.146Z,95801.00
2022-09-28T01:11:33.728Z,95800.19
2022-09-28T01:12:35.267Z,95807.16
2022-09-28T01:13:37.859Z,95804.88
2022-09-28T01:14:41.230Z,95811.44
2022-09-28T01:15:59.370Z,95817.66
2022-09-28T01:17:37.841Z,95818.84
2022-09-28T01:19:07.947Z,95809.56
2022-09-28T01:20:21.539Z,95814.94
2022-09-28T01:21:24.512Z,95808.72
2022-09-28T01:22:34.437Z,95813.38
2022-09-28T01:24:20.718Z,95815.66
2022-09-28T01:25:25.933Z,95817.22
2022-09-28T01:27:11.877Z,95818.78
2022-09-28T01:28:16.324Z,95818.88
2022-09-28T01:29:40.428Z,95810.03
2022-09-28T01:31:12.851Z,95818.97
2022-09-28T01:32:29.633Z,95811.25
2022-09-28T01:33:46.024Z,95808.19
2022-09-28T01:34:57.751Z,95817.84
2022-09-28T01:36:33.305Z,95815.16
2022-09-28T01:37:48.214Z,95815.50
2022-09-28T01:38:55.299Z,95820.50
2022-09-28T01:39:58.590Z,95817.41
2022-09-28T01:41:00.673Z,95813.91
2022-09-28T01:42:12.038Z,95816.22
2022-09-28T01:43:26.709Z,95823.22
2022-09-28T01:44:32.865Z,95822.47
2022-09-28T01:45:42.813Z,95811.31
2022-09-28T01:46:48.427Z,95809.00
2022-09-28T01:47:51.280Z,95816.75
2022-09-28T01:49:05.129Z,95821.75
2022-09-28T01:50:14.725Z,95808.66
2022-09-28T01:51:29.341Z,95819.03
2022-09-28T01:52:40.989Z,95813.63
2022-09-28T01:53:49.272Z,95817.13
2022-09-28T01:55:34.712Z,95812.84
2022-09-28T01:56:42.002Z,95812.84
2022-09-28T01:57:48.393Z,95815.16
2022-09-28T01:58:57.671Z,95823.25
2022-09-28T02:00:14.620Z,95821.31
2022-09-28T02:01:24.611Z,95827.47
2022-09-28T02:02:32.833Z,95823.66
2022-09-28T02:03:46.048Z,95818.66
2022-09-28T02:05:04.904Z,95819.81
2022-09-28T02:06:16.350Z,95828.31
2022-09-28T02:07:24.401Z,95817.50
2022-09-28T02:08:45.911Z,95819.81
2022-09-28T02:09:56.031Z,95826.03
2022-09-28T02:11:04.902Z,95832.19
2022-09-28T02:12:15.075Z,95830.63
2022-09-28T02:13:25.333Z,95830.63
2022-09-28T02:14:29.819Z,95825.63
2022-09-28T02:15:41.664Z,95831.81
2022-09-28T02:16:46.758Z,95835.28
2022-09-28T02:17:49.404Z,95824.84
2022-09-28T02:18:51.580Z,95826.00
2022-09-28T02:19:53.211Z,95822.94
2022-09-28T02:21:11.034Z,95824.09
2022-09-28T02:22:28.614Z,95822.91
2022-09-28T02:23:35.167Z,95832.97
2022-09-28T02:24:41.996Z,95836.41
2022-09-28T02:25:50.121Z,95825.63
2022-09-28T02:26:55.354Z,95839.91
2022-09-28T02:27:56.868Z,95829.09
2022-09-28T02:28:59.316Z,95826.41
2022-09-28T02:30:01.670Z,95826.00
2022-09-28T02:31:03.492Z,95834.09
2022-09-28T02:32:05.256Z,95831.41
2022-09-28T02:33:15.686Z,95838.31
2022-09-28T02:34:17.390Z,95838.69
2022-09-28T02:35:19.857Z,95836.03
2022-09-28T02:36:22.232Z,95841.00
2022-09-28T02:37:23.915Z,95829.06
2022-09-28T02:38:25.511Z,95836.78
2022-09-28T02:39:27.148Z,95837.91
2022-09-28T02:40:33.568Z,95839.41
2022-09-28T02:41:41.151Z,95842.13
2022-09-28T02:43:10.654Z,95830.53
2022-09-28T02:44:41.091Z,95837.78
2022-09-28T02:46:03.604Z,95826.59
2022-09-28T02:47:27.158Z,95826.56
2022-09-28T02:49:04.963Z,95824.66
2022-09-28T02:50:20.764Z,95828.81
2022-09-28T02:51:35.983Z,95822.66
2022-09-28T02:53:06.772Z,95831.88
2022-09-28T02:54:39.262Z,95827.25
2022-09-28T02:56:18.217Z,95830.03
2022-09-28T02:57:19.733Z,95833.56
2022-09-28T02:58:33.256Z,95827.47
2022-09-28T02:59:58.492Z,95831.34
2022-09-28T03:01:18.560Z,95834.41
2022-09-28T03:02:32.203Z,95830.56
2022-09-28T03:03:48.621Z,95846.34
2022-09-28T03:05:16.057Z,95840.91
2022-09-28T03:06:27.022Z,95844.34
2022-09-28T03:07:37.807Z,95844.38
2022-09-28T03:08:52.952Z,95845.94
2022-09-28T03:10:27.790Z,95843.63
2022-09-28T03:11:37.082Z,95847.44
2022-09-28T03:12:39.589Z,95840.50
2022-09-28T03:13:42.416Z,95851.31
2022-09-28T03:14:45.179Z,95845.91
2022-09-28T03:15:48.980Z,95838.94
2022-09-28T03:16:50.904Z,95840.88
2022-09-28T03:17:52.681Z,95834.28
2022-09-28T03:18:54.463Z,95834.25
2022-09-28T03:19:55.994Z,95835.06
2022-09-28T03:20:57.855Z,95835.84
2022-09-28T03:21:59.816Z,95839.78
2022-09-28T03:23:23.384Z,95838.28
2022-09-28T03:24:23.190Z,95839.81
2022-09-28T03:25:24.806Z,95843.66
2022-09-28T03:26:26.381Z,95846.78
2022-09-28T03:27:29.038Z,95845.22
2022-09-28T03:28:31.103Z,95840.22
2022-09-28T03:29:33.534Z,95844.06
2022-09-28T03:30:35.724Z,95850.66
2022-09-28T03:31:38.507Z,95849.13
2022-09-28T03:32:40.644Z,95853.00
2022-09-28T03:33:42.426Z,95846.03
2022-09-28T03:34:45.638Z,95849.88
2022-09-28T03:35:48.551Z,95847.56
2022-09-28T03:36:50.073Z,95853.75
2022-09-28T03:37:55.974Z,95859.16
2022-09-28T03:38:57.820Z,95857.63
2022-09-28T03:39:59.383Z,95859.94
2022-09-28T03:41:01.286Z,95859.16
2022-09-28T03:42:02.945Z,95856.88
2022-09-28T03:43:04.535Z,95853.00
2022-09-28T03:44:06.123Z,95857.63
2022-09-28T03:45:07.910Z,95854.13
2022-09-28T03:46:09.641Z,95854.13
2022-09-28T03:47:11.333Z,95862.22
2022-09-28T03:48:12.889Z,95864.53
2022-09-28T03:49:14.545Z,95868.00
2022-09-28T03:50:16.433Z,95866.09
2022-09-28T03:51:17.965Z,95869.94
2022-09-28T03:52:19.561Z,95866.09
2022-09-28T03:53:21.343Z,95869.56
2022-09-28T03:54:23.047Z,95866.88
2022-09-28T03:55:24.645Z,95858.41
2022-09-28T03:56:26.566Z,95867.66
2022-09-28T03:57:28.118Z,95870.72
2022-09-28T03:58:29.801Z,95876.53
2022-09-28T03:59:31.364Z,95869.94
2022-09-28T04:00:33.079Z,95868.41
2022-09-28T04:01:34.832Z,95876.47
2022-09-28T04:02:36.609Z,95885.31
2022-09-28T04:03:38.768Z,95885.31
2022-09-28T04:04:40.324Z,95884.16
2022-09-28T04:05:52.805Z,95875.31
2022-09-28T04:06:54.414Z,95874.53
2022-09-28T04:07:58.818Z,95882.25
2022-09-28T04:09:00.426Z,95871.38
2022-09-28T04:10:01.958Z,95875.09
2022-09-28T04:11:03.692Z,95876.25
2022-09-28T04:12:06.103Z,95881.28
2022-09-28T04:13:07.645Z,95874.34
2022-09-28T04:14:10.765Z,95874.34
2022-09-28T04:15:12.515Z,95873.19
2022-09-28T04:16:14.144Z,95876.72
2022-09-28T04:17:15.696Z,95877.53
2022-09-28T04:18:17.244Z,95883.72
2022-09-28T04:19:20.004Z,95882.19
2022-09-28T04:20:22.105Z,95881.81
2022-09-28T04:21:23.688Z,95887.63
2022-09-28T04:22:25.245Z,95879.19
2022-09-28T04:23:27.879Z,95883.78
2022-09-28T04:24:29.429Z,95883.06
2022-09-28T04:25:30.985Z,95879.22
2022-09-28T04:26:32.522Z,95891.56
2022-09-28T04:27:52.255Z,95883.81
2022-09-28T04:29:12.630Z,95899.66
2022-09-28T04:30:14.518Z,95898.47
2022-09-28T04:31:22.329Z,95900.00
2022-09-28T04:32:24.405Z,95905.38
2022-09-28T04:33:25.961Z,95898.84
2022-09-28T04:34:31.916Z,95900.41
2022-09-28T04:35:37.076Z,95894.59
2022-09-28T04:36:38.587Z,95887.69
2022-09-28T04:37:40.307Z,95889.59
2022-09-28T04:38:52.851Z,95894.22
2022-09-28T04:39:54.909Z,95876.81
2022-09-28T04:40:56.522Z,95873.97
2022-09-28T04:41:58.062Z,95877.38
2022-09-28T04:42:59.626Z,95873.88
2022-09-28T04:44:01.448Z,95880.09
2022-09-28T04:45:04.787Z,95892.84
2022-09-28T04:46:06.484Z,95894.81
2022-09-28T04:47:08.111Z,95889.81
2022-09-28T04:48:09.650Z,95892.56
2022-09-28T04:49:11.571Z,95899.16
2022-09-28T04:50:13.162Z,95906.13
2022-09-28T04:51:14.951Z,95903.06
2022-09-28T04:52:18.539Z,95900.72
2022-09-28T04:53:20.485Z,95898.78
2022-09-28T04:54:22.007Z,95902.22
2022-09-28T04:55:23.691Z,95892.97
2022-09-28T04:56:25.369Z,95891.41
2022-09-28T04:57:26.890Z,95889.53
2022-09-28T04:58:29.765Z,95898.44
2022-09-28T04:59:31.511Z,95900.78
2022-09-28T05:00:35.955Z,95900.78
2022-09-28T05:01:37.775Z,95900.03
2022-09-28T05:02:39.433Z,95899.28
2022-09-28T05:03:41.555Z,95897.34
2022-09-28T05:04:43.120Z,95903.53
2022-09-28T05:05:45.773Z,95907.00
2022-09-28T05:06:47.363Z,95902.38
2022-09-28T05:07:48.928Z,95908.56
2022-09-28T05:08:50.451Z,95905.09
2022-09-28T05:09:51.989Z,95913.22
2022-09-28T05:11:04.926Z,95910.88
2022-09-28T05:12:06.563Z,95917.44
2022-09-28T11:45:34.230Z,95777.13
2022-09-28T11:46:52.253Z,95774.38
2022-09-28T11:48:01.976Z,95770.44
2022-09-28T11:49:41.770Z,95763.13
2022-09-28T11:50:50.428Z,95765.56
2022-09-28T11:51:56.757Z,95772.56
2022-09-28T11:53:16.336Z,95769.94
2022-09-28T11:54:34.109Z,95775.88
2022-09-28T11:55:45.284Z,95767.94
2022-09-28T11:56:50.487Z,95767.50
2022-09-28T11:58:24.136Z,95768.81
2022-09-28T11:59:31.944Z,95765.78
2022-09-28T12:00:41.344Z,95771.53
2022-09-28T12:01:53.344Z,95761.09
2022-09-28T12:02:54.931Z,95764.13
2022-09-28T12:04:03.865Z,95761.03
2022-09-28T12:05:20.529Z,95749.44
2022-09-28T12:06:30.112Z,95752.75
2022-09-28T12:07:40.454Z,95757.97
2022-09-28T12:09:06.531Z,95754.59
2022-09-28T12:10:11.665Z,95755.19
2022-09-28T12:11:32.929Z,95755.97
2022-09-28T12:12:37.209Z,95757.34
2022-09-28T12:13:44.620Z,95756.44
2022-09-28T12:14:48.248Z,95754.66
2022-09-28T12:16:38.418Z,95761.66
2022-09-28T12:17:43.642Z,95750.69
2022-09-28T12:20:27.224Z,95754.09
2022-09-28T12:21:44.898Z,95751.66
2022-09-28T12:23:11.760Z,95755.47
2022-09-28T12:24:30.975Z,95752.06
2022-09-28T12:25:42.973Z,95746.97
2022-09-28T12:27:05.260Z,95746.56
2022-09-28T12:28:15.428Z,95747.19
2022-09-28T12:29:43.452Z,95743.25
2022-09-28T12:30:47.609Z,95745.91
2022-09-28T12:32:13.972Z,95744.84
2022-09-28T12:33:15.649Z,95742.28
2022-09-28T12:34:17.205Z,95744.28
2022-09-28T12:35:54.944Z,95746.72
2022-09-28T12:37:05.483Z,95742.28
2022-09-28T12:38:38.063Z,95749.75
2022-09-28T12:39:59.618Z,95752.69
2022-09-28T12:41:07.826Z,95751.91
2022-09-28T12:42:27.653Z,95752.19
2022-09-28T12:43:55.151Z,95750.81
2022-09-28T12:45:18.843Z,95747.59
2022-09-28T12:46:33.152Z,95754.03
2022-09-28T12:47:55.629Z,95760.16
2022-09-28T12:51:39.311Z,95748.56
2022-09-28T12:52:43.791Z,95747.63
2022-09-28T12:54:06.838Z,95751.47
2022-09-28T12:55:25.136Z,95756.03
2022-09-28T12:56:36.134Z,95751.59
2022-09-28T12:57:45.846Z,95754.22
2022-09-28T12:59:06.029Z,95757.69
2022-09-28T13:00:10.941Z,95757.97
2022-09-28T13:01:31.254Z,95753.69
2022-09-28T13:02:53.037Z,95753.81
2022-09-28T13:04:00.310Z,95752.78
2022-09-28T13:05:42.922Z,95758.84
2022-09-28T13:06:54.585Z,95760.16
2022-09-28T13:08:13.975Z,95758.16
2022-09-28T13:09:20.299Z,95758.38
2022-09-28T13:10:41.122Z,95769.34
2022-09-28T13:11:54.798Z,95762.28
2022-09-28T13:13:22.958Z,95770.19
2022-09-28T13:14:33.731Z,95762.53
2022-09-28T13:15:43.967Z,95756.19
2022-09-28T13:17:14.914Z,95761.38
2022-09-28T13:18:20.031Z,95758.69
2022-09-28T13:19:28.580Z,95757.78
2022-09-28T13:20:59.265Z,95756.53
2022-09-28T13:22:22.846Z,95758.38
2022-09-28T13:23:31.132Z,95758.97
2022-09-28T13:24:37.534Z,95764.91
2022-09-28T13:25:44.719Z,95759.91
2022-09-28T13:26:47.436Z,95758.69
2022-09-28T13:27:58.761Z,95762.22
2022-09-28T13:29:04.369Z,95764.66
2022-09-28T13:30:07.890Z,95756.84
2022-09-28T13:31:11.250Z,95760.69
2022-09-28T13:32:13.875Z,95766.31
2022-09-28T13:33:39.521Z,95762.31
2022-09-28T13:34:41.163Z,95759.41
2022-09-28T13:35:44.091Z,95753.72
2022-09-28T13:36:48.140Z,95755.25
2022-09-28T13:38:16.317Z,95762.53
2022-09-28T13:39:45.042Z,95758.59
2022-09-28T13:41:04.910Z,95756.94
2022-09-28T13:42:09.606Z,95758.59
2022-09-28T13:43:26.994Z,95760.44
2022-09-28T13:45:09.811Z,95759.56
2022-09-28T13:46:25.080Z,95752.06
2022-09-28T13:47:42.171Z,95756.34
2022-09-28T13:49:03.551Z,95759.13
2022-09-28T13:50:23.274Z,95750.91
2022-09-28T13:51:55.492Z,95747.88
2022-09-28T13:53:24.886Z,95747.59
2022-09-28T13:54:42.978Z,95753.38
2022-09-28T13:56:03.038Z,95746.34
2022-09-28T13:57:19.633Z,95743.94
2022-09-28T13:58:25.700Z,95741.78
2022-09-28T13:59:32.365Z,95737.16
2022-09-28T14:00:46.138Z,95743.53
2022-09-28T14:01:55.704Z,95742.31
2022-09-28T14:03:13.234Z,95736.78
2022-09-28T14:04:21.896Z,95739.78
2022-09-28T14:05:23.377Z,95744.31
2022-09-28T14:06:28.280Z,95731.53
2022-09-28T14:07:35.817Z,95732.59
2022-09-28T14:09:04.909Z,95732.47
2022-09-28T14:10:21.679Z,95730.78
2022-09-28T14:11:34.210Z,95739.78
2022-09-28T14:12:35.686Z,95731.25
2022-09-28T14:13:43.001Z,95727.75
2022-09-28T14:14:50.148Z,95731.25
2022-09-28T14:15:52.409Z,95728.97
2022-09-28T14:17:23.484Z,95727.59
2022-09-28T14:18:27.916Z,95737.47
2022-09-28T14:19:33.431Z,95739.75
2022-09-28T14:20:36.406Z,95740.81
2022-09-28T14:21:46.836Z,95737.34
2022-09-28T14:23:15.586Z,95735.19
2022-09-28T14:24:30.207Z,95733.78
2022-09-28T14:25:36.003Z,95730.31
2022-09-28T14:26:56.254Z,95727.66
2022-09-28T14:28:23.299Z,95733.81
2022-09-28T14:29:28.815Z,95730.16
2022-09-28T14:30:44.971Z,95726.66
2022-09-28T14:31:46.676Z,95732.63
2022-09-28T14:33:22.868Z,95738.72
2022-09-28T14:34:36.743Z,95724.56
2022-09-28T14:35:43.669Z,95725.31
2022-09-28T14:37:07.627Z,95730.03
2022-09-28T14:38:38.185Z,95727.72
2022-09-28T14:40:03.495Z,95729.53
2022-09-28T14:41:27.115Z,95726.81
2022-09-28T14:42:28.969Z,95729.38
2022-09-28T14:43:45.576Z,95727.97
2022-09-28T14:45:06.096Z,95728.69
2022-09-28T14:46:11.613Z,95730.09
2022-09-28T14:47:35.304Z,95733.75
2022-09-28T14:48:53.515Z,95726.00
2022-09-28T14:50:03.154Z,95728.59
2022-09-28T14:51:26.735Z,95725.84
2022-09-28T14:52:40.742Z,95734.53
2022-09-28T14:53:42.402Z,95727.00
2022-09-28T14:54:54.333Z,95729.13
2022-09-28T14:56:00.651Z,95724.34
2022-09-28T14:57:17.194Z,95729.03
2022-09-28T14:58:22.814Z,95726.00
2022-09-28T14:59:26.936Z,95729.03
2022-09-28T15:00:31.866Z,95725.66
2022-09-28T15:01:36.080Z,95723.72
2022-09-28T15:02:38.819Z,95722.06
2022-09-28T15:03:42.734Z,95730.16
2022-09-28T15:04:50.343Z,95718.75
2022-09-28T15:05:52.798Z,95730.63
2022-09-28T15:06:54.539Z,95728.19
2022-09-28T15:07:56.275Z,95736.75
2022-09-28T15:08:57.852Z,95733.09
2022-09-28T15:10:02.073Z,95733.09
2022-09-28T15:11:03.747Z,95740.13
2022-09-28T15:12:15.069Z,95740.81
2022-09-28T15:13:20.791Z,95736.66
2022-09-28T15:14:23.167Z,95738.34
2022-09-28T15:15:30.617Z,95739.22
2022-09-28T15:16:32.718Z,95745.47
2022-09-28T15:17:39.974Z,95747.41
2022-09-28T15:18:47.809Z,95748.94
2022-09-28T15:20:08.828Z,95746.91
2022-09-28T15:21:12.226Z,95749.34
2022-09-28T15:22:17.748Z,95743.53
2022-09-28T15:23:37.174Z,95739.59
2022-09-28T15:24:40.228Z,95747.94
2022-09-28T15:25:41.732Z,95742.22
2022-09-28T15:26:48.106Z,95745.38
2022-09-28T15:27:55.429Z,95747.59
2022-09-28T15:28:57.285Z,95749.84
2022-09-28T15:30:00.951Z,95749.09
2022-09-28T15:31:04.985Z,95754.81
2022-09-28T15:32:06.870Z,95747.34
2022-09-28T15:33:44.811Z,95747.56
2022-09-28T15:34:52.717Z,95742.97
2022-09-28T15:36:06.833Z,95752.63
2022-09-28T15:37:11.553Z,95753.69
2022-09-28T15:38:19.002Z,95754.56
2022-09-28T15:39:27.763Z,95757.75
2022-09-28T15:40:37.742Z,95747.53
2022-09-28T15:41:41.531Z,95758.19
2022-09-28T15:42:45.281Z,95753.91
2022-09-28T15:44:06.963Z,95760.28
2022-09-28T15:45:14.313Z,95754.03
2022-09-28T15:46:21.135Z,95760.09
2022-09-28T15:47:28.374Z,95761.28
2022-09-28T15:48:51.678Z,95756.38
2022-09-28T15:50:04.507Z,95756.31
2022-09-28T15:51:10.747Z,95757.94
2022-09-28T15:52:36.781Z,95755.97
2022-09-28T15:53:44.039Z,95763.19
2022-09-28T15:54:45.688Z,95760.13
2022-09-28T15:55:50.271Z,95760.56
2022-09-28T15:56:58.923Z,95759.56
2022-09-28T15:58:12.610Z,95759.56
2022-09-28T15:59:14.061Z,95759.69
2022-09-28T16:00:21.450Z,95762.88
2022-09-28T16:01:36.412Z,95757.41
2022-09-28T16:02:38.466Z,95763.75
2022-09-28T16:03:40.063Z,95751.94
2022-09-28T16:04:55.289Z,95761.00
2022-09-28T16:06:09.925Z,95760.03
2022-09-28T16:07:41.649Z,95759.38
2022-09-28T16:08:48.855Z,95752.94
2022-09-28T16:10:12.113Z,95757.00
2022-09-28T16:11:16.709Z,95764.00
2022-09-28T16:12:20.011Z,95758.72
2022-09-28T16:13:23.142Z,95757.72
2022-09-28T16:14:27.231Z,95761.34
2022-09-28T16:15:37.912Z,95762.22
2022-09-28T16:16:47.325Z,95762.22
2022-09-28T16:18:10.422Z,95761.91
2022-09-28T16:19:23.594Z,95762.56
2022-09-28T16:20:29.906Z,95762.88
2022-09-28T16:21:51.194Z,95765.09
2022-09-28T16:22:53.630Z,95761.69
2022-09-28T16:23:56.070Z,95763.56
2022-09-28T16:25:00.101Z,95764.34
2022-09-28T16:26:05.172Z,95764.78
2022-09-28T16:27:06.618Z,95762.38
2022-09-28T16:28:25.442Z,95769.59
2022-09-28T16:29:39.014Z,95774.44
2022-09-28T16:31:14.068Z,95771.69
2022-09-28T16:32:47.906Z,95776.81
2022-09-28T16:33:55.145Z,95779.56
2022-09-28T16:35:21.692Z,95772.66
2022-09-28T16:36:26.939Z,95770.50
2022-09-28T16:37:32.458Z,95773.66
2022-09-28T16:38:34.101Z,95770.91
2022-09-28T16:39:35.854Z,95779.78
2022-09-28T16:40:42.686Z,95774.97
2022-09-28T16:41:53.947Z,95773.75
2022-09-28T16:43:00.318Z,95774.72
2022-09-28T16:44:02.388Z,95770.56
2022-09-28T16:45:05.387Z,95779.09
2022-09-28T16:46:17.535Z,95780.84
2022-09-28T16:47:19.210Z,95778.34
2022-09-28T16:48:21.889Z,95781.94
2022-09-28T16:49:25.509Z,95780.31
2022-09-28T16:50:27.772Z,95786.44
2022-09-28T16:51:29.812Z,95781.75
2022-09-28T16:52:51.713Z,95780.06
2022-09-28T16:54:12.126Z,95783.03
2022-09-28T16:55:40.379Z,95785.53
2022-09-28T16:56:38.609Z,95786.75
2022-09-28T16:57:40.162Z,95790.03
2022-09-28T16:58:42.508Z,95783.38
2022-09-28T16:59:44.139Z,95786.91
2022-09-28T17:00:45.794Z,95790.28
2022-09-28T17:01:49.456Z,95793.66
2022-09-28T17:02:51.343Z,95786.66
2022-09-28T17:03:52.892Z,95791.22
2022-09-28T17:04:57.399Z,95796.00
2022-09-28T17:05:58.960Z,95796.47
2022-09-28T17:07:00.528Z,95789.88
2022-09-28T17:08:04.014Z,95791.09
2022-09-28T17:09:07.062Z,95788.81
2022-09-28T17:10:29.295Z,95788.34
2022-09-28T17:11:30.819Z,95790.66
2022-09-28T17:12:32.366Z,95786.06
2022-09-28T17:13:34.711Z,95786.06
2022-09-28T17:14:36.967Z,95787.63
2022-09-28T17:15:40.048Z,95792.41
2022-09-28T17:17:06.691Z,95793.94
2022-09-28T17:18:04.129Z,95792.50
2022-09-28T17:19:21.439Z,95798.84
2022-09-28T17:20:27.605Z,95802.00
2022-09-28T17:21:29.152Z,95808.34
2022-09-28T17:22:30.938Z,95805.28
2022-09-28T17:23:33.302Z,95803.72
2022-09-28T17:24:35.158Z,95800.69
2022-09-28T17:25:36.821Z,95799.47
2022-09-28T17:26:38.612Z,95809.72
2022-09-28T17:27:45.431Z,95803.94
2022-09-28T17:28:47.214Z,95806.56
2022-09-28T17:29:48.799Z,95808.44
2022-09-28T17:30:50.515Z,95807.66
2022-09-28T17:31:54.771Z,95809.19
2022-09-28T17:32:57.234Z,95810.06
2022-09-28T17:33:58.900Z,95813.34
2022-09-28T17:35:23.031Z,95808.72
2022-09-28T17:36:22.788Z,95817.78
2022-09-28T17:37:24.306Z,95813.94
2022-09-28T17:38:25.937Z,95813.63
2022-09-28T17:39:27.842Z,95816.78
2022-09-28T17:40:30.423Z,95827.72
2022-09-28T17:41:32.381Z,95818.44
2022-09-28T17:42:34.163Z,95828.59
2022-09-28T17:43:35.811Z,95826.69
2022-09-28T17:44:37.345Z,95823.97
2022-09-28T17:45:40.964Z,95829.63
2022-09-28T17:46:49.677Z,95831.31
2022-09-28T17:47:51.472Z,95834.91
2022-09-28T17:48:56.563Z,95826.03
2022-09-28T17:49:58.596Z,95836.63
2022-09-28T17:51:02.004Z,95843.28
2022-09-28T17:52:05.472Z,95836.28
2022-09-28T17:53:07.276Z,95833.97
2022-09-28T17:54:08.917Z,95835.63
2022-09-28T17:55:10.537Z,95837.69
2022-09-28T17:56:12.284Z,95842.38
2022-09-28T17:57:13.797Z,95840.41
2022-09-28T17:58:18.441Z,95840.06
2022-09-28T17:59:20.041Z,95843.19
2022-09-28T18:00:22.793Z,95839.81
2022-09-28T18:01:24.429Z,95846.03
2022-09-28T18:02:26.090Z,95842.53
2022-09-28T18:03:27.724Z,95840.56
2022-09-28T18:04:50.873Z,95842.28
2022-09-28T18:06:00.592Z,95836.91
2022-09-28T18:07:02.115Z,95840.94
2022-09-28T18:08:04.534Z,95841.78
2022-09-28T18:09:06.204Z,95841.78
2022-09-28T18:10:13.682Z,95845.69
2022-09-28T18:11:17.368Z,95842.97
2022-09-28T18:12:19.280Z,95844.94
2022-09-28T18:13:20.817Z,95854.31
2022-09-28T18:14:22.538Z,95848.88
2022-09-28T18:15:24.257Z,95850.47
2022-09-28T18:16:28.023Z,95859.84
2022-09-28T18:17:29.674Z,95853.63
2022-09-28T18:18:33.363Z,95848.25
2022-09-28T18:19:34.888Z,95853.72
2022-09-28T18:20:37.589Z,95861.56
2022-09-28T18:21:39.155Z,95855.34
2022-09-28T18:22:40.742Z,95856.09
2022-09-28T18:23:42.372Z,95854.66
2022-09-28T18:24:43.891Z,95862.50
2022-09-28T18:25:46.379Z,95861.38
2022-09-28T18:26:47.889Z,95864.59
2022-09-28T18:27:49.435Z,95865.88
2022-09-28T18:28:54.600Z,95864.34
2022-09-28T18:29:56.935Z,95862.38
2022-09-28T18:30:59.058Z,95865.94
2022-09-28T18:32:01.540Z,95874.13
2022-09-28T18:33:03.058Z,95862.84
2022-09-28T18:34:04.621Z,95869.84
2022-09-28T18:35:08.783Z,95866.09
2022-09-28T18:36:10.413Z,95859.44
2022-09-28T18:37:11.995Z,95865.66
2022-09-28T18:38:13.557Z,95860.63
2022-09-28T18:39:15.115Z,95871.53
2022-09-28T18:40:16.684Z,95865.00
2022-09-28T18:41:18.264Z,95862.34
2022-09-28T18:42:20.642Z,95861.63
2022-09-28T18:43:22.949Z,95864.03
2022-09-28T18:44:24.913Z,95859.78
2022-09-28T18:45:26.749Z,95868.81
2022-09-28T18:46:29.481Z,95858.72
2022-09-28T18:47:31.212Z,95863.41
2022-09-28T18:48:32.810Z,95864.19
2022-09-28T18:49:34.507Z,95872.03
2022-09-28T18:50:36.167Z,95867.41
2022-09-28T18:51:37.714Z,95869.81
2022-09-28T18:52:40.066Z,95869.81
2022-09-28T18:53:42.206Z,95873.72
2022-09-28T18:54:44.153Z,95870.31
2022-09-28T18:55:45.710Z,95872.66
2022-09-28T18:56:47.442Z,95868.41
2022-09-28T18:57:49.163Z,95869.09
2022-09-28T18:58:53.771Z,95869.44
2022-09-28T18:59:55.318Z,95867.91
2022-09-28T19:01:13.576Z,95873.78
2022-09-28T19:02:18.474Z,95876.09
2022-09-28T19:03:20.275Z,95878.38
2022-09-28T19:04:21.915Z,95879.94
2022-09-28T19:05:23.518Z,95878.66
2022-09-28T19:06:25.061Z,95877.47
2022-09-28T19:07:26.912Z,95876.63
2022-09-28T19:08:28.436Z,95886.34
2022-09-28T19:09:30.159Z,95884.81
2022-09-28T19:10:31.707Z,95889.41
2022-09-28T19:11:33.546Z,95885.91
2022-09-28T19:12:35.064Z,95881.22
2022-09-28T19:13:37.364Z,95891.72
2022-09-28T19:14:39.048Z,95891.63
2022-09-28T19:15:40.626Z,95897.03
2022-09-28T19:16:44.123Z,95888.06
2022-09-28T19:17:46.806Z,95896.56
2022-09-28T19:18:48.543Z,95894.28
2022-09-28T19:19:51.210Z,95900.50
2022-09-28T19:20:52.813Z,95905.78
2022-09-28T19:21:54.414Z,95907.53
2022-09-28T19:22:55.973Z,95898.44
2022-09-28T19:24:00.944Z,95900.56
2022-09-28T19:25:02.488Z,95896.25
2022-09-28T19:26:14.349Z,95900.44
2022-09-28T19:27:16.043Z,95901.88
2022-09-28T19:28:17.569Z,95905.88
2022-09-28T19:29:19.785Z,95905.88
2022-09-28T19:30:21.414Z,95902.81
2022-09-28T19:31:23.396Z,95899.91
2022-09-28T19:32:24.905Z,95903.22
2022-09-28T19:33:26.928Z,95898.03
2022-09-28T19:34:30.125Z,95893.66
2022-09-28T19:35:31.926Z,95897.75
2022-09-28T19:36:33.466Z,95893.19
2022-09-28T19:37:36.576Z,95896.41
2022-09-28T19:38:39.401Z,95893.00
2022-09-28T19:39:40.953Z,95894.28
2022-09-28T19:40:42.553Z,95899.34
2022-09-28T19:41:47.880Z,95902.16
2022-09-28T19:42:49.386Z,95900.69
2022-09-28T19:43:51.377Z,95899.16
2022-09-28T19:44:52.891Z,95903.13
2022-09-28T19:45:55.991Z,95905.44
2022-09-28T19:47:07.385Z,95907.81
2022-09-28T19:48:08.939Z,95901.59
2022-09-28T19:49:25.255Z,95901.69
2022-09-28T19:50:26.775Z,95902.84
2022-09-28T19:51:28.892Z,95898.22
2022-09-28T19:52:30.482Z,95899.78
2022-09-28T19:53:37.894Z,95902.44
2022-09-28T19:54:39.686Z,95901.53
2022-09-28T19:55:41.414Z,95899.16